createdAt,value
2023-04-16T00:00:48.516Z,101487.09
2023-04-16T00:05:50.742Z,101498.63
2023-04-16T00:10:53.751Z,101490.66
2023-04-16T00:15:56.128Z,101496.03
2023-04-16T00:20:58.523Z,101500.38
2023-04-16T00:26:00.505Z,101494.31
2023-04-16T00:31:02.462Z,101487.09
2023-04-16T00:36:05.180Z,101492.41
2023-04-16T00:41:07.131Z,101489.03
2023-04-16T00:46:09.185Z,101487.94
2023-04-16T00:51:11.911Z,101489.84
2023-04-16T00:56:14.351Z,101488.19
2023-04-16T01:01:16.788Z,101490.78
2023-04-16T01:06:19.253Z,101495.13
2023-04-16T01:11:21.449Z,101495.91
2023-04-16T01:16:23.654Z,101497.63
2023-04-16T01:21:26.954Z,101487.09
2023-04-16T01:26:28.844Z,101486.28
2023-04-16T01:31:30.816Z,101490.69
2023-04-16T01:36:32.787Z,101497.63
2023-04-16T01:41:34.789Z,101493.44
2023-04-16T01:46:38.030Z,101494.41
2023-04-16T01:51:40.041Z,101494.47
2023-04-16T01:56:41.997Z,101494.34
2023-04-16T02:01:44.188Z,101493.44
2023-04-16T02:06:46.316Z,101499.66
2023-04-16T02:11:48.407Z,101489.03
2023-04-16T02:16:50.725Z,101491.69
2023-04-16T02:21:53.753Z,101491.69
2023-04-16T02:26:56.056Z,101491.59
2023-04-16T02:31:58.173Z,101477.53
2023-04-16T02:37:00.105Z,101489.03
2023-04-16T02:42:02.982Z,101495.38
2023-04-16T02:47:04.955Z,101489.03
2023-04-16T02:52:06.785Z,101493.59
2023-04-16T02:57:09.098Z,101487.31
2023-04-16T03:02:11.181Z,101493.53
2023-04-16T03:07:13.287Z,101499.84
2023-04-16T03:12:15.257Z,101497.94
2023-04-16T03:17:17.299Z,101502.38
2023-04-16T03:22:19.398Z,101510.25
2023-04-16T03:27:21.339Z,101507.63
2023-04-16T03:32:23.330Z,101516.41
2023-04-16T03:37:25.499Z,101509.44
2023-04-16T03:42:27.559Z,101517.50
2023-04-16T03:47:29.536Z,101512.03
2023-04-16T03:52:31.405Z,101505.97
2023-04-16T03:57:33.609Z,101512.19
2023-04-16T04:02:38.674Z,101513.94
2023-04-16T04:07:40.788Z,101505.03
2023-04-16T04:12:43.285Z,101508.50
2023-04-16T04:17:45.207Z,101507.63
2023-04-16T04:22:47.322Z,101505.03
2023-04-16T04:27:49.761Z,101509.47
2023-04-16T04:32:52.074Z,101511.28
2023-04-16T04:37:54.252Z,101510.47
2023-04-16T04:42:56.551Z,101520.97
2023-04-16T04:47:58.421Z,101528.91
2023-04-16T04:53:00.436Z,101539.66
2023-04-16T04:58:04.008Z,101529.06
2023-04-16T05:03:09.931Z,101535.25
2023-04-16T05:08:11.955Z,101533.63
2023-04-16T05:13:13.913Z,101538.75
2023-04-16T05:18:16.175Z,101544.09
2023-04-16T05:23:18.025Z,101548.44
2023-04-16T05:28:19.927Z,101544.97
2023-04-16T05:33:21.843Z,101552.13
2023-04-16T05:38:23.856Z,101557.53
2023-04-16T05:43:26.029Z,101556.50
2023-04-16T05:48:27.920Z,101561.78
2023-04-16T05:53:29.823Z,101568.06
2023-04-16T05:58:31.820Z,101574.44
2023-04-16T06:03:34.156Z,101570.59
2023-04-16T06:08:36.258Z,101573.25
2023-04-16T06:13:39.880Z,101575.22
2023-04-16T06:18:41.904Z,101586.59
2023-04-16T06:23:44.020Z,101583.94
2023-04-16T06:28:46.253Z,101590.19
2023-04-16T06:33:48.500Z,101598.13
2023-04-16T06:38:50.417Z,101603.66
2023-04-16T06:43:52.550Z,101608.84
2023-04-16T06:48:54.462Z,101603.47
2023-04-16T06:53:56.568Z,101607.94
2023-04-16T06:58:59.259Z,101604.50
2023-04-16T07:04:01.746Z,101615.28
2023-04-16T07:09:04.068Z,101616.94
2023-04-16T07:14:05.914Z,101625.72
2023-04-16T07:19:07.981Z,101625.78
2023-04-16T07:24:13.341Z,101634.59
2023-04-16T07:29:15.420Z,101635.63
2023-04-16T07:34:17.387Z,101635.63
2023-04-16T07:39:19.312Z,101647.16
2023-04-16T07:44:21.384Z,101653.22
2023-04-16T07:49:23.548Z,101658.53
2023-04-16T07:54:26.780Z,101659.66
2023-04-16T07:59:30.594Z,101657.81
2023-04-16T08:04:32.737Z,101669.28
2023-04-16T08:09:36.612Z,101670.28
2023-04-16T08:14:38.881Z,101671.06
2023-04-16T08:19:41.247Z,101680.88
2023-04-16T08:24:43.277Z,101687.34
2023-04-16T08:29:45.274Z,101687.09
2023-04-16T08:34:47.456Z,101699.00
2023-04-16T08:39:49.771Z,101699.31
2023-04-16T08:45:00.626Z,101706.16
2023-04-16T08:50:04.682Z,101707.97
2023-04-16T08:55:17.461Z,101714.13
2023-04-16T09:00:20.236Z,101709.06
2023-04-16T09:05:25.972Z,101721.53
2023-04-16T09:10:28.381Z,101725.84
2023-04-16T09:15:32.016Z,101720.78
2023-04-16T09:20:35.402Z,101729.03
2023-04-16T09:25:38.938Z,101727.75
2023-04-16T09:30:41.679Z,101718.56
2023-04-16T09:35:48.163Z,101729.94
2023-04-16T09:41:06.778Z,101738.81
2023-04-16T09:46:12.192Z,101741.38
2023-04-16T09:51:14.201Z,101736.00
2023-04-16T09:56:16.288Z,101745.75
2023-04-16T10:01:18.890Z,101751.34
2023-04-16T10:06:23.952Z,101752.88
2023-04-16T10:11:26.589Z,101749.28
2023-04-16T10:16:30.240Z,101743.88
2023-04-16T10:21:34.551Z,101762.50
2023-04-16T10:26:37.156Z,101749.22
2023-04-16T10:31:40.417Z,101759.91
2023-04-16T10:36:42.835Z,101768.75
2023-04-16T10:41:45.620Z,101762.47
2023-04-16T10:46:51.646Z,101769.78
2023-04-16T10:51:58.935Z,101765.09
2023-04-16T10:57:04.922Z,101771.22
2023-04-16T11:02:10.142Z,101762.41
2023-04-16T11:07:14.442Z,101766.66
2023-04-16T11:12:40.711Z,101763.72
2023-04-16T11:17:48.404Z,101759.16
2023-04-16T11:22:51.828Z,101756.53
2023-04-16T11:27:54.154Z,101775.94
2023-04-16T11:32:56.785Z,101765.28
2023-04-16T11:37:59.550Z,101765.41
2023-04-16T11:43:15.398Z,101767.13
2023-04-16T11:48:17.699Z,101768.75
2023-04-16T11:53:19.773Z,101765.91
2023-04-16T11:58:22.924Z,101767.66
2023-04-16T12:03:44.395Z,101772.31
2023-04-16T12:08:46.920Z,101773.00
2023-04-16T12:14:12.004Z,101768.59
2023-04-16T12:19:14.702Z,101772.84
2023-04-16T12:24:21.318Z,101774.53
2023-04-16T12:29:28.511Z,101773.59
2023-04-16T12:34:48.761Z,101770.88
2023-04-16T12:39:51.356Z,101774.59
2023-04-16T12:44:53.574Z,101774.53
2023-04-16T12:49:57.896Z,101777.09
2023-04-16T12:55:00.026Z,101773.59
2023-04-16T13:00:02.077Z,101782.41
2023-04-16T13:05:04.587Z,101781.53
2023-04-16T13:10:07.504Z,101785.22
2023-04-16T13:15:10.282Z,101786.06
2023-04-16T13:20:12.473Z,101783.38
2023-04-16T13:25:14.402Z,101777.19
2023-04-16T13:30:16.644Z,101787.81
2023-04-16T13:35:18.666Z,101785.22
2023-04-16T13:40:20.951Z,101787.28
2023-04-16T13:45:23.381Z,101780.97
2023-04-16T13:50:25.692Z,101778.38
2023-04-16T13:55:27.660Z,101790.75
2023-04-16T14:00:30.054Z,101787.28
2023-04-16T14:05:31.990Z,101791.84
2023-04-16T14:10:34.133Z,101780.22
2023-04-16T14:15:36.586Z,101788.94
2023-04-16T14:20:40.291Z,101781.78
2023-04-16T14:25:42.411Z,101788.88
2023-04-16T14:30:44.676Z,101781.78
2023-04-16T14:35:46.841Z,101782.56
2023-04-16T14:40:49.134Z,101788.88
2023-04-16T14:45:51.462Z,101786.19
2023-04-16T14:50:54.052Z,101787.06
2023-04-16T14:55:59.431Z,101779.03
2023-04-16T15:01:01.640Z,101782.72
2023-04-16T15:06:03.717Z,101768.28
2023-04-16T15:11:06.244Z,101759.28
2023-04-16T15:16:08.417Z,101761.91
2023-04-16T15:21:12.418Z,101754.72
2023-04-16T15:26:15.055Z,101753.78
2023-04-16T15:31:17.046Z,101762.94
2023-04-16T15:36:19.173Z,101762.06
2023-04-16T15:41:21.231Z,101772.69
2023-04-16T15:46:23.269Z,101767.47
2023-04-16T15:51:25.510Z,101769.31
2023-04-16T15:56:27.780Z,101770.09
2023-04-16T16:01:29.869Z,101778.06
2023-04-16T16:06:31.930Z,101779.03
2023-04-16T16:11:34.332Z,101779.03
2023-04-16T16:16:36.737Z,101782.44
2023-04-16T16:21:38.714Z,101780.69
2023-04-16T16:26:40.605Z,101786.06
2023-04-16T16:31:42.812Z,101785.22
2023-04-16T16:36:48.595Z,101782.59
2023-04-16T16:41:52.667Z,101787.00
2023-04-16T16:46:54.753Z,101779.13
2023-04-16T16:51:57.970Z,101787.06
2023-04-16T16:57:00.176Z,101786.06
2023-04-16T17:02:03.333Z,101793.22
2023-04-16T17:07:05.722Z,101793.19
2023-04-16T17:12:08.061Z,101788.09
2023-04-16T17:17:10.334Z,101803.03
2023-04-16T17:22:12.491Z,101801.34
2023-04-16T17:27:14.501Z,101792.31
2023-04-16T17:32:16.896Z,101793.03
2023-04-16T17:37:19.106Z,101800.09
2023-04-16T17:42:21.146Z,101802.94
2023-04-16T17:47:23.048Z,101804.63
2023-04-16T17:52:25.071Z,101811.44
2023-04-16T17:57:29.920Z,101816.34
2023-04-16T18:02:32.193Z,101811.06
2023-04-16T18:07:35.983Z,101826.94
2023-04-16T18:12:38.020Z,101833.19
2023-04-16T18:17:40.577Z,101826.25
2023-04-16T18:22:43.008Z,101822.19
2023-04-16T18:27:45.760Z,101830.28
2023-04-16T18:33:10.094Z,101826.75
2023-04-16T18:38:10.307Z,101825.91
2023-04-16T18:43:12.398Z,101831.28
2023-04-16T18:48:14.437Z,101834.91
2023-04-16T18:53:16.469Z,101835.75
2023-04-16T18:58:18.245Z,101834.03
2023-04-16T19:03:21.095Z,101842.91
2023-04-16T19:08:23.195Z,101847.31
2023-04-16T19:13:25.566Z,101846.38
2023-04-16T19:18:27.794Z,101853.50
2023-04-16T19:23:30.011Z,101857.00
2023-04-16T19:28:32.168Z,101850.94
2023-04-16T19:33:34.670Z,101850.88
2023-04-16T19:38:36.864Z,101857.13
2023-04-16T19:43:39.073Z,101855.47
2023-04-16T19:48:41.180Z,101858.56
2023-04-16T19:53:43.223Z,101861.06
2023-04-16T19:58:45.647Z,101862.16
2023-04-16T20:03:47.863Z,101864.06
2023-04-16T20:08:49.909Z,101863.13
2023-04-16T20:13:51.783Z,101867.44
2023-04-16T20:18:54.630Z,101874.59
2023-04-16T20:23:56.679Z,101856.09
2023-04-16T20:28:58.759Z,101873.81
2023-04-16T20:34:00.801Z,101879.22
2023-04-16T20:39:02.749Z,101873.81
2023-04-16T20:44:05.930Z,101869.25
2023-04-16T20:49:08.822Z,101868.41
2023-04-16T20:54:11.444Z,101868.44
2023-04-16T20:59:13.844Z,101873.03
2023-04-16T21:04:16.479Z,101867.72
2023-04-16T21:09:18.384Z,101873.91
2023-04-16T21:14:20.408Z,101873.91
2023-04-16T21:19:22.941Z,101870.56
2023-04-16T21:24:24.930Z,101860.91
2023-04-16T21:29:27.098Z,101866.34
2023-04-16T21:34:29.958Z,101861.16
2023-04-16T21:39:31.881Z,101867.38
2023-04-16T21:44:34.163Z,101863.91
2023-04-16T21:49:36.009Z,101858.56
2023-04-16T21:54:37.811Z,101866.63
2023-04-16T21:59:39.904Z,101857.78
2023-04-16T22:04:42.457Z,101865.72
2023-04-16T22:09:44.388Z,101859.63
2023-04-16T22:14:59.579Z,101858.66
2023-04-16T22:20:13.350Z,101851.59
2023-04-16T22:25:15.895Z,101852.47
2023-04-16T22:30:17.981Z,101847.03
2023-04-16T22:35:20.048Z,101849.84
2023-04-16T22:40:22.120Z,101847.16
2023-04-16T22:45:24.127Z,101846.38
2023-04-16T22:50:26.114Z,101840.97
2023-04-16T22:55:28.171Z,101848.22
2023-04-16T23:00:30.075Z,101840.03
2023-04-16T23:05:32.613Z,101840.19
2023-04-16T23:10:34.740Z,101838.31
2023-04-16T23:15:36.814Z,101844.53
2023-04-16T23:20:39.219Z,101847.22
2023-04-16T23:25:42.086Z,101848.13
2023-04-16T23:30:44.286Z,101849.97
2023-04-16T23:35:47.829Z,101860.59
2023-04-16T23:40:50.181Z,101861.47
2023-04-16T23:45:52.099Z,101859.66
2023-04-16T23:50:54.602Z,101852.56
2023-04-16T23:55:56.503Z,101846.34
